createdAt,value
2018-09-01T00:02:12.089Z,1.50
2018-09-01T00:04:40.708Z,1.70
2018-09-01T00:07:09.354Z,1.43
2018-09-01T00:09:37.973Z,1.50
2018-09-01T00:12:07.617Z,1.83
2018-09-01T00:14:36.363Z,1.90
2018-09-01T00:17:05.412Z,2.03
2018-09-01T00:19:34.230Z,1.70
2018-09-01T00:22:02.932Z,1.50
2018-09-01T00:24:31.609Z,1.50
2018-09-01T00:27:00.267Z,1.50
2018-09-01T00:29:29.052Z,2.03
2018-09-01T00:31:57.673Z,1.77
2018-09-01T00:34:26.318Z,1.50
2018-09-01T00:36:54.997Z,1.57
2018-09-01T00:39:23.689Z,1.60
2018-09-01T00:41:52.360Z,1.50
2018-09-01T00:44:21.007Z,2.00
2018-09-01T00:46:49.678Z,1.60
2018-09-01T00:49:18.336Z,1.80
2018-09-01T00:51:46.993Z,1.80
2018-09-01T00:54:15.640Z,1.33
2018-09-01T00:56:44.264Z,1.40
2018-09-01T00:59:12.906Z,1.60
2018-09-01T01:01:41.588Z,1.53
2018-09-01T01:04:10.257Z,1.93
2018-09-01T01:06:38.937Z,1.50
2018-09-01T01:09:07.610Z,1.60
2018-09-01T01:11:36.248Z,1.47
2018-09-01T01:14:04.908Z,1.83
2018-09-01T01:16:33.621Z,1.73
2018-09-01T01:19:02.261Z,1.73
2018-09-01T01:21:31.080Z,1.70
2018-09-01T01:23:59.741Z,1.60
2018-09-01T01:26:28.378Z,1.60
2018-09-01T01:28:57.009Z,1.63
2018-09-01T01:31:25.732Z,1.60
2018-09-01T01:33:54.425Z,1.70
2018-09-01T01:36:23.083Z,1.50
2018-09-01T01:38:52.013Z,1.87
2018-09-01T01:41:20.657Z,1.63
2018-09-01T01:43:49.348Z,1.80
2018-09-01T01:46:18.004Z,1.83
2018-09-01T01:48:46.765Z,1.67
2018-09-01T01:51:15.414Z,1.70
2018-09-01T01:53:44.057Z,1.80
2018-09-01T01:56:12.689Z,1.60
2018-09-01T01:58:41.328Z,1.83
2018-09-01T02:01:10.018Z,1.60
2018-09-01T02:03:38.833Z,1.97
2018-09-01T02:06:07.469Z,1.70
2018-09-01T02:08:36.133Z,2.00
2018-09-01T02:11:04.808Z,2.17
2018-09-01T02:13:33.442Z,1.93
2018-09-01T02:16:02.248Z,1.90
2018-09-01T02:18:30.874Z,1.90
2018-09-01T02:20:59.528Z,1.80
2018-09-01T02:23:28.175Z,1.70
2018-09-01T02:25:56.787Z,2.20
2018-09-01T02:28:25.664Z,1.73
2018-09-01T02:30:54.336Z,1.80
2018-09-01T02:33:23.035Z,1.97
2018-09-01T02:35:51.736Z,1.70
2018-09-01T02:38:20.383Z,1.53
2018-09-01T02:40:49.021Z,2.17
2018-09-01T02:43:17.693Z,1.83
2018-09-01T02:45:46.371Z,2.13
2018-09-01T02:48:15.009Z,1.93
2018-09-01T02:50:43.695Z,2.00
2018-09-01T02:53:12.399Z,2.37
2018-09-01T02:55:41.084Z,2.13
2018-09-01T02:58:09.718Z,2.00
2018-09-01T03:00:38.725Z,2.03
2018-09-01T03:03:07.348Z,1.87
2018-09-01T03:05:36.023Z,1.93
2018-09-01T03:08:04.828Z,1.90
2018-09-01T03:10:33.508Z,1.90
2018-09-01T03:13:02.182Z,1.83
2018-09-01T03:15:30.839Z,2.60
2018-09-01T03:17:59.480Z,2.33
2018-09-01T03:20:28.152Z,1.77
2018-09-01T03:22:56.771Z,2.03
2018-09-01T03:25:25.460Z,1.80
2018-09-01T03:27:54.100Z,1.90
2018-09-01T03:30:22.774Z,2.10
2018-09-01T03:32:51.420Z,1.93
2018-09-01T03:35:20.053Z,2.00
2018-09-01T03:37:48.684Z,2.27
2018-09-01T03:40:17.361Z,2.30
2018-09-01T03:42:45.997Z,1.80
2018-09-01T03:45:14.644Z,2.03
2018-09-01T03:47:43.272Z,2.00
2018-09-01T03:50:11.977Z,2.23
2018-09-01T03:52:40.736Z,2.10
2018-09-01T03:55:09.434Z,2.00
2018-09-01T03:57:38.069Z,2.00
2018-09-01T04:00:06.869Z,2.03
2018-09-01T04:02:35.951Z,2.03
2018-09-01T04:05:04.764Z,2.40
2018-09-01T04:07:33.412Z,2.23
2018-09-01T04:10:02.217Z,2.00
2018-09-01T04:12:30.937Z,2.37
2018-09-01T04:14:59.564Z,2.30
2018-09-01T04:17:28.220Z,1.90
2018-09-01T04:19:56.869Z,2.07
2018-09-01T04:22:25.569Z,2.27
2018-09-01T04:24:54.198Z,2.27
2018-09-01T04:27:22.844Z,2.30
2018-09-01T04:29:51.525Z,2.27
2018-09-01T04:32:20.143Z,2.60
2018-09-01T04:34:48.785Z,1.70
2018-09-01T04:37:17.424Z,2.27
2018-09-01T04:39:46.117Z,2.10
2018-09-01T04:42:14.756Z,2.37
2018-09-01T04:44:43.364Z,2.40
2018-09-01T04:47:12.229Z,2.50
2018-09-01T04:49:40.862Z,2.00
2018-09-01T04:52:09.487Z,2.47
2018-09-01T04:54:38.128Z,2.30
2018-09-01T04:57:06.777Z,2.03
2018-09-01T04:59:35.406Z,2.50
2018-09-01T05:02:04.043Z,2.60
2018-09-01T05:04:32.713Z,2.50
2018-09-01T05:07:01.358Z,2.77
2018-09-01T05:09:29.978Z,3.00
2018-09-01T05:11:58.636Z,2.53
2018-09-01T05:14:29.782Z,1.93
2018-09-01T05:16:59.659Z,2.40
2018-09-01T05:19:28.334Z,2.40
2018-09-01T05:21:57.527Z,2.83
2018-09-01T05:24:27.133Z,2.47
2018-09-01T05:26:55.860Z,2.60
2018-09-01T05:29:24.533Z,2.10
2018-09-01T05:31:53.757Z,2.60
2018-09-01T05:34:22.496Z,2.40
2018-09-01T05:36:51.148Z,2.70
2018-09-01T05:39:19.780Z,2.50
2018-09-01T05:41:48.969Z,2.87
2018-09-01T05:44:18.136Z,3.50
2018-09-01T05:46:46.769Z,2.80
2018-09-01T05:49:15.415Z,2.53
2018-09-01T05:51:44.068Z,3.37
2018-09-01T05:54:12.740Z,3.07
2018-09-01T05:56:41.680Z,2.20
2018-09-01T05:59:10.443Z,2.60
2018-09-01T06:01:39.238Z,2.50
2018-09-01T06:04:07.875Z,2.53
2018-09-01T06:06:37.461Z,2.37
2018-09-01T06:09:07.871Z,2.50
2018-09-01T06:11:36.701Z,2.50
2018-09-01T06:14:05.717Z,2.50
2018-09-01T06:16:34.395Z,2.40
2018-09-01T06:19:03.329Z,2.67
2018-09-01T06:21:31.970Z,2.70
2018-09-01T06:24:00.720Z,2.77
2018-09-01T06:26:29.436Z,2.97
2018-09-01T06:29:15.356Z,2.00
2018-09-01T06:31:50.425Z,2.20
2018-09-01T06:34:19.124Z,2.93
2018-09-01T06:36:47.820Z,2.30
2018-09-01T06:39:16.496Z,2.20
2018-09-01T06:41:45.208Z,2.60
2018-09-01T06:44:13.909Z,2.97
2018-09-01T06:46:42.580Z,2.20
2018-09-01T06:49:11.327Z,2.07
2018-09-01T06:51:40.035Z,2.30
2018-09-01T06:54:08.860Z,2.27
2018-09-01T06:56:37.661Z,2.33
2018-09-01T06:59:06.429Z,2.23
2018-09-01T07:01:35.120Z,2.03
2018-09-01T07:04:03.904Z,2.30
2018-09-01T07:06:32.591Z,1.93
2018-09-01T07:09:01.243Z,1.87
2018-09-01T07:11:29.888Z,1.90
2018-09-01T07:13:58.544Z,1.93
2018-09-01T07:16:27.189Z,2.00
2018-09-01T07:18:55.791Z,2.67
2018-09-01T07:21:24.412Z,2.10
2018-09-01T07:23:53.040Z,2.27
2018-09-01T07:26:21.658Z,2.23
2018-09-01T07:28:50.272Z,2.20
2018-09-01T07:31:19.240Z,2.20
2018-09-01T07:33:47.609Z,1.70
2018-09-01T07:36:16.211Z,2.17
2018-09-01T07:38:44.832Z,1.97
2018-09-01T07:41:13.483Z,1.63
2018-09-01T07:43:42.117Z,2.30
2018-09-01T07:46:10.730Z,2.13
2018-09-01T07:48:39.372Z,1.97
2018-09-01T07:51:08.015Z,2.20
2018-09-01T07:53:36.643Z,1.63
2018-09-01T07:56:05.384Z,1.70
2018-09-01T07:58:33.959Z,1.93
2018-09-01T08:01:02.616Z,1.80
2018-09-01T08:03:31.256Z,1.77
2018-09-01T08:05:59.913Z,1.60
2018-09-01T08:08:28.566Z,1.27
2018-09-01T08:10:57.256Z,1.43
2018-09-01T08:13:25.935Z,1.40
2018-09-01T08:15:54.653Z,1.20
2018-09-01T08:18:23.288Z,1.30
2018-09-01T08:20:51.930Z,1.70
2018-09-01T08:23:20.609Z,1.40
2018-09-01T08:25:49.308Z,1.20
2018-09-01T08:28:18.069Z,1.50
2018-09-01T08:30:46.766Z,1.40
2018-09-01T08:33:15.471Z,1.67
2018-09-01T08:35:44.129Z,1.70
2018-09-01T08:38:12.776Z,1.50
2018-09-01T08:40:41.424Z,1.63
2018-09-01T08:43:10.056Z,1.50
2018-09-01T08:45:38.760Z,1.30
2018-09-01T08:48:07.420Z,1.47
2018-09-01T08:50:36.077Z,1.43
2018-09-01T08:53:04.794Z,1.30
2018-09-01T08:55:33.498Z,1.60
2018-09-01T08:58:02.155Z,1.40
2018-09-01T09:00:30.810Z,1.67
2018-09-01T09:02:59.493Z,1.40
2018-09-01T09:05:28.126Z,1.53
2018-09-01T09:07:56.896Z,1.80
2018-09-01T09:10:25.541Z,1.60
2018-09-01T09:12:54.215Z,1.50
2018-09-01T09:15:22.972Z,1.80
2018-09-01T09:17:51.641Z,1.27
2018-09-01T09:20:20.281Z,1.70
2018-09-01T09:22:48.923Z,1.83
2018-09-01T09:25:17.584Z,1.40
2018-09-01T09:27:46.220Z,1.50
2018-09-01T09:30:14.869Z,1.27
2018-09-01T09:32:43.496Z,1.20
2018-09-01T09:35:12.145Z,1.50
2018-09-01T09:37:40.775Z,1.60
2018-09-01T09:40:09.416Z,1.20
2018-09-01T09:42:38.052Z,1.77
2018-09-01T09:45:06.741Z,1.40
2018-09-01T09:47:35.403Z,1.57
2018-09-01T09:50:04.152Z,1.70
2018-09-01T09:52:32.788Z,1.67
2018-09-01T09:55:01.540Z,1.60
2018-09-01T09:57:30.248Z,1.70
2018-09-01T09:59:58.904Z,1.60
2018-09-01T10:02:27.611Z,1.60
2018-09-01T10:04:56.248Z,1.60
2018-09-01T10:07:24.888Z,1.53
2018-09-01T10:09:53.564Z,1.50
2018-09-01T10:12:22.188Z,1.60
2018-09-01T10:14:50.818Z,1.60
2018-09-01T10:17:19.492Z,1.40
2018-09-01T10:19:48.140Z,1.47
2018-09-01T10:22:16.792Z,1.83
2018-09-01T10:24:45.453Z,1.80
2018-09-01T10:27:14.118Z,1.50
2018-09-01T10:29:42.757Z,1.77
2018-09-01T10:32:11.396Z,1.63
2018-09-01T10:34:40.033Z,1.50
2018-09-01T10:37:08.669Z,1.70
2018-09-01T10:39:37.324Z,1.87
2018-09-01T10:42:06.064Z,1.83
2018-09-01T10:44:34.684Z,1.70
2018-09-01T10:47:03.317Z,1.57
2018-09-01T10:49:31.964Z,1.93
2018-09-01T10:52:00.608Z,1.90
2018-09-01T10:54:29.245Z,2.10
2018-09-01T10:56:57.881Z,1.90
2018-09-01T10:59:26.634Z,1.63
2018-09-01T11:01:55.179Z,1.73
2018-09-01T11:04:23.987Z,1.87
2018-09-01T11:06:52.631Z,1.80
2018-09-01T11:09:21.310Z,1.70
2018-09-01T11:11:49.952Z,1.83
2018-09-01T11:14:18.630Z,1.60
2018-09-01T11:16:47.321Z,1.60
2018-09-01T11:19:16.016Z,1.60
2018-09-01T11:21:44.698Z,1.50
2018-09-01T11:24:13.356Z,1.83
2018-09-01T11:26:41.988Z,1.73
2018-09-01T11:29:10.725Z,1.43
2018-09-01T11:31:39.396Z,1.90
2018-09-01T11:34:08.114Z,1.93
2018-09-01T11:36:36.952Z,1.70
2018-09-01T11:39:07.793Z,1.73
2018-09-01T11:41:36.448Z,1.67
2018-09-01T11:44:05.228Z,1.67
2018-09-01T11:46:33.844Z,1.60
2018-09-01T11:49:02.455Z,1.60
2018-09-01T11:51:31.096Z,1.50
2018-09-01T11:53:59.740Z,1.93
2018-09-01T11:56:28.348Z,1.70
2018-09-01T11:58:56.989Z,2.20
2018-09-01T12:01:25.649Z,1.60
2018-09-01T12:03:54.244Z,1.73
2018-09-01T12:06:22.879Z,1.90
2018-09-01T12:08:51.603Z,1.50
2018-09-01T12:11:20.188Z,1.37
2018-09-01T12:13:48.804Z,1.80
2018-09-01T12:16:17.515Z,1.50
2018-09-01T12:18:46.124Z,1.57
2018-09-01T12:21:14.724Z,1.70
2018-09-01T12:23:43.317Z,1.67
2018-09-01T12:26:11.945Z,1.73
2018-09-01T12:28:40.542Z,1.80
2018-09-01T12:31:09.443Z,1.70
2018-09-01T12:33:38.075Z,1.80
2018-09-01T12:36:07.042Z,1.50
2018-09-01T12:38:35.687Z,1.43
2018-09-01T12:41:04.308Z,1.50
2018-09-01T12:43:32.973Z,1.80
2018-09-01T12:46:01.576Z,2.07
2018-09-01T12:48:30.229Z,1.57
2018-09-01T12:50:58.827Z,1.47
2018-09-01T12:53:27.544Z,2.00
2018-09-01T12:55:56.212Z,1.70
2018-09-01T12:58:24.823Z,1.50
2018-09-01T13:00:53.431Z,1.50
2018-09-01T13:03:22.035Z,1.70
2018-09-01T13:05:50.689Z,1.50
2018-09-01T13:08:19.299Z,1.40
2018-09-01T13:10:48.032Z,1.83
2018-09-01T13:13:16.656Z,1.43
2018-09-01T13:15:45.260Z,1.87
2018-09-01T13:18:13.884Z,1.63
2018-09-01T13:20:42.589Z,1.87
2018-09-01T13:23:11.228Z,1.50
2018-09-01T13:25:39.847Z,1.70
2018-09-01T13:28:08.453Z,1.57
2018-09-01T13:30:37.068Z,1.73
2018-09-01T13:33:05.714Z,1.70
2018-09-01T13:35:34.335Z,1.50
2018-09-01T13:38:02.932Z,1.73
2018-09-01T13:40:31.659Z,1.70
2018-09-01T13:43:00.320Z,1.53
2018-09-01T13:45:28.930Z,1.60
2018-09-01T13:47:57.531Z,1.83
2018-09-01T13:50:26.168Z,1.97
2018-09-01T13:52:54.884Z,1.83
2018-09-01T13:55:23.543Z,1.63
2018-09-01T13:57:52.224Z,1.60
2018-09-01T14:00:20.860Z,1.77
2018-09-01T14:02:49.488Z,1.60
2018-09-01T14:05:18.141Z,1.50
2018-09-01T14:07:46.856Z,1.57
2018-09-01T14:10:15.475Z,1.50
2018-09-01T14:12:44.216Z,1.63
2018-09-01T14:15:12.820Z,1.73
2018-09-01T14:17:41.424Z,1.63
2018-09-01T14:20:10.056Z,1.80
2018-09-01T14:22:38.760Z,1.57
2018-09-01T14:25:07.396Z,1.90
2018-09-01T14:27:36.106Z,1.90
2018-09-01T14:30:04.963Z,1.47
2018-09-01T14:32:33.568Z,1.77
2018-09-01T14:35:02.167Z,1.67
2018-09-01T14:37:35.115Z,1.60
2018-09-01T14:40:03.796Z,1.40
2018-09-01T14:42:32.505Z,1.50
2018-09-01T14:45:01.166Z,1.30
2018-09-01T14:47:29.906Z,1.67
2018-09-01T14:49:58.520Z,1.70
2018-09-01T14:52:27.175Z,1.53
2018-09-01T14:54:55.765Z,1.53
2018-09-01T14:57:24.372Z,1.33
2018-09-01T14:59:53.129Z,1.60
2018-09-01T15:02:21.863Z,1.10
2018-09-01T15:04:50.499Z,1.20
2018-09-01T15:07:19.229Z,1.40
2018-09-01T15:09:47.872Z,1.50
2018-09-01T15:12:16.616Z,1.63
2018-09-01T15:14:45.212Z,1.10
2018-09-01T15:17:13.824Z,1.63
2018-09-01T15:19:42.464Z,1.40
2018-09-01T15:22:11.076Z,1.63
2018-09-01T15:24:39.687Z,1.30
2018-09-01T15:27:08.296Z,1.13
2018-09-01T15:29:36.936Z,1.20
2018-09-01T15:32:05.688Z,1.70
2018-09-01T15:34:34.287Z,1.40
2018-09-01T15:37:02.960Z,1.20
2018-09-01T15:39:31.598Z,1.33
2018-09-01T15:42:00.213Z,1.10
2018-09-01T15:44:28.960Z,1.10
2018-09-01T15:46:57.648Z,1.43
2018-09-01T15:49:26.242Z,1.10
2018-09-01T15:51:54.920Z,1.03
2018-09-01T15:54:23.512Z,1.10
2018-09-01T15:56:52.252Z,1.10
2018-09-01T15:59:20.964Z,1.23
2018-09-01T16:01:49.580Z,1.00
2018-09-01T16:04:18.216Z,1.13
2018-09-01T16:06:46.816Z,1.10
2018-09-01T16:09:15.409Z,1.10
2018-09-01T16:11:44.015Z,1.20
2018-09-01T16:14:12.712Z,1.23
2018-09-01T16:16:41.334Z,1.10
2018-09-01T16:19:09.948Z,1.50
2018-09-01T16:21:38.567Z,1.17
2018-09-01T16:24:07.271Z,1.20
2018-09-01T16:26:35.886Z,1.00
2018-09-01T16:29:04.585Z,0.90
2018-09-01T16:31:33.192Z,1.00
2018-09-01T16:34:01.812Z,1.07
2018-09-01T16:36:30.499Z,1.17
2018-09-01T16:38:59.173Z,1.20
2018-09-01T16:41:27.808Z,1.07
2018-09-01T16:43:56.427Z,1.10
2018-09-01T16:46:25.049Z,1.20
2018-09-01T16:48:53.653Z,1.47
2018-09-01T16:51:22.253Z,1.30
2018-09-01T16:53:50.868Z,1.17
2018-09-01T16:56:19.476Z,1.10
2018-09-01T16:58:48.075Z,1.00
2018-09-01T17:01:16.684Z,1.20
2018-09-01T17:03:45.292Z,0.90
2018-09-01T17:06:13.900Z,1.20
2018-09-01T17:08:42.556Z,1.20
2018-09-01T17:11:11.177Z,1.00
2018-09-01T17:13:39.804Z,1.20
2018-09-01T17:16:08.432Z,0.80
2018-09-01T17:18:37.116Z,1.40
2018-09-01T17:21:05.832Z,1.10
2018-09-01T17:23:34.440Z,1.00
2018-09-01T17:26:03.076Z,1.00
2018-09-01T17:28:31.685Z,1.23
2018-09-01T17:31:00.368Z,1.23
2018-09-01T17:33:29.158Z,1.40
2018-09-01T17:35:57.776Z,1.20
2018-09-01T17:38:26.507Z,1.23
2018-09-01T17:40:55.225Z,1.20
2018-09-01T17:43:23.853Z,1.00
2018-09-01T17:45:52.540Z,1.03
2018-09-01T17:48:21.149Z,0.93
2018-09-01T17:50:49.856Z,1.10
2018-09-01T17:53:18.468Z,1.20
2018-09-01T17:55:47.079Z,1.17
2018-09-01T17:58:15.744Z,1.10
2018-09-01T18:00:45.105Z,0.97
2018-09-01T18:03:13.806Z,1.20
2018-09-01T18:05:42.456Z,1.30
2018-09-01T18:08:11.128Z,1.00
2018-09-01T18:10:39.840Z,1.10
2018-09-01T18:13:08.505Z,1.07
2018-09-01T18:15:37.183Z,1.13
2018-09-01T18:18:05.977Z,1.27
2018-09-01T18:20:34.616Z,1.13
2018-09-01T18:23:03.294Z,1.20
2018-09-01T18:25:31.945Z,1.00
2018-09-01T18:28:00.589Z,1.20
2018-09-01T18:30:29.233Z,1.10
2018-09-01T18:32:57.861Z,1.30
2018-09-01T18:35:26.575Z,1.10
2018-09-01T18:37:55.180Z,1.33
2018-09-01T18:40:23.916Z,0.87
2018-09-01T18:42:52.571Z,1.20
2018-09-01T18:45:21.208Z,1.20
2018-09-01T18:47:49.886Z,1.10
2018-09-01T18:50:18.565Z,1.27
2018-09-01T18:52:47.233Z,1.40
2018-09-01T18:55:15.887Z,1.30
2018-09-01T18:57:44.501Z,0.90
2018-09-01T19:00:13.148Z,1.07
2018-09-01T19:02:41.933Z,1.30
2018-09-01T19:05:10.568Z,0.97
2018-09-01T19:07:39.248Z,0.93
2018-09-01T19:10:07.960Z,0.97
2018-09-01T19:12:36.575Z,1.03
2018-09-01T19:15:05.316Z,1.17
2018-09-01T19:17:33.950Z,1.10
2018-09-01T19:20:02.633Z,0.90
2018-09-01T19:22:31.247Z,1.03
2018-09-01T19:25:00.019Z,0.90
2018-09-01T19:27:28.707Z,1.10
2018-09-01T19:29:57.344Z,1.47
2018-09-01T19:32:26.009Z,1.23
2018-09-01T19:34:54.705Z,1.07
2018-09-01T19:37:23.388Z,1.20
2018-09-01T19:39:52.082Z,1.03
2018-09-01T19:42:20.704Z,1.10
2018-09-01T19:44:49.477Z,0.90
2018-09-01T19:47:18.048Z,1.00
2018-09-01T19:49:46.677Z,1.60
2018-09-01T19:52:15.477Z,0.90
2018-09-01T19:54:44.134Z,1.10
2018-09-01T19:57:12.784Z,1.03
2018-09-01T19:59:41.426Z,1.10
2018-09-01T20:02:10.076Z,1.20
2018-09-01T20:04:38.775Z,1.20
2018-09-01T20:07:07.420Z,1.20
2018-09-01T20:09:36.049Z,0.97
2018-09-01T20:12:04.757Z,1.17
2018-09-01T20:14:33.608Z,1.10
2018-09-01T20:17:02.320Z,1.07
2018-09-01T20:19:30.994Z,1.10
2018-09-01T20:21:59.649Z,0.90
2018-09-01T20:24:28.341Z,1.10
2018-09-01T20:26:57.025Z,1.20
2018-09-01T20:29:25.662Z,1.20
2018-09-01T20:31:54.478Z,1.10
2018-09-01T20:34:23.081Z,1.50
2018-09-01T20:36:51.718Z,1.00
2018-09-01T20:39:20.382Z,1.10
2018-09-01T20:41:49.016Z,1.10
2018-09-01T20:44:17.656Z,1.00
2018-09-01T20:46:46.350Z,1.17
2018-09-01T20:49:14.996Z,1.10
2018-09-01T20:51:43.622Z,1.00
2018-09-01T20:54:12.252Z,1.00
2018-09-01T20:56:41.070Z,1.10
2018-09-01T20:59:10.228Z,1.13
2018-09-01T21:01:38.864Z,1.23
2018-09-01T21:04:07.510Z,1.10
2018-09-01T21:06:36.165Z,1.13
2018-09-01T21:09:06.012Z,1.10
2018-09-01T21:11:34.765Z,1.30
2018-09-01T21:14:03.496Z,1.40
2018-09-01T21:16:32.182Z,1.23
2018-09-01T21:19:00.989Z,1.30
2018-09-01T21:21:29.721Z,1.30
2018-09-01T21:23:58.356Z,1.10
2018-09-01T21:26:27.036Z,1.90
2018-09-01T21:28:55.751Z,1.40
2018-09-01T21:31:24.388Z,1.30
2018-09-01T21:33:53.041Z,1.50
2018-09-01T21:36:21.840Z,1.37
2018-09-01T21:38:50.463Z,1.33
2018-09-01T21:41:19.118Z,1.27
2018-09-01T21:43:47.964Z,1.20
2018-09-01T21:46:16.597Z,1.20
2018-09-01T21:48:45.244Z,1.47
2018-09-01T21:51:13.936Z,1.20
2018-09-01T21:53:42.565Z,1.20
2018-09-01T21:56:11.468Z,1.10
2018-09-01T21:58:40.224Z,1.07
2018-09-01T22:01:14.124Z,1.27
2018-09-01T22:03:46.727Z,1.33
2018-09-01T22:06:16.185Z,1.10
2018-09-01T22:08:44.820Z,1.37
2018-09-01T22:11:13.526Z,1.20
2018-09-01T22:13:42.240Z,1.20
2018-09-01T22:16:10.884Z,1.10
2018-09-01T22:18:39.561Z,1.27
2018-09-01T22:21:08.568Z,1.10
2018-09-01T22:23:37.711Z,1.17
2018-09-01T22:26:06.928Z,1.10
2018-09-01T22:28:35.704Z,1.20
2018-09-01T22:31:04.443Z,1.30
2018-09-01T22:33:33.098Z,1.50
2018-09-01T22:36:01.929Z,1.63
2018-09-01T22:38:31.078Z,1.57
2018-09-01T22:40:59.788Z,1.60
2018-09-01T22:43:28.467Z,1.57
2018-09-01T22:45:57.224Z,1.30
2018-09-01T22:48:25.848Z,1.47
2018-09-01T22:50:54.487Z,1.43
2018-09-01T22:53:23.141Z,1.67
2018-09-01T22:55:51.771Z,1.33
2018-09-01T22:58:20.487Z,1.70
2018-09-01T23:00:49.117Z,1.80
2018-09-01T23:03:17.736Z,1.53
2018-09-01T23:05:46.390Z,1.67
2018-09-01T23:08:15.016Z,1.50
2018-09-01T23:10:43.770Z,1.30
2018-09-01T23:13:12.400Z,1.90
2018-09-01T23:15:41.044Z,1.60
2018-09-01T23:18:09.694Z,1.73
2018-09-01T23:20:38.392Z,1.57
2018-09-01T23:23:07.053Z,1.53
2018-09-01T23:25:35.713Z,2.17
2018-09-01T23:28:04.353Z,1.70
2018-09-01T23:30:33.105Z,1.83
2018-09-01T23:33:01.735Z,1.70
2018-09-01T23:35:30.422Z,1.77
2018-09-01T23:37:59.095Z,1.67
2018-09-01T23:40:27.733Z,1.77
2018-09-01T23:42:56.400Z,1.93
2018-09-01T23:45:25.032Z,1.50
2018-09-01T23:47:53.845Z,1.83
2018-09-01T23:50:22.504Z,1.67
2018-09-01T23:52:51.156Z,1.73
2018-09-01T23:55:19.908Z,2.03
2018-09-01T23:57:48.533Z,1.87
